sensor_id;sensor_type;location;lat;lon;timestamp;pressure;altitude;pressure_sealevel;temperature;humidity
73952;BME280;62304;47.662;18.324;2023-08-12T00:02:40;100977.47;;;16.38;85.16
73952;BME280;62304;47.662;18.324;2023-08-12T00:05:45;100976.69;;;16.41;85.30
73952;BME280;62304;47.662;18.324;2023-08-12T00:08:48;100976.25;;;16.36;85.18
73952;BME280;62304;47.662;18.324;2023-08-12T00:11:51;100979.13;;;16.50;84.93
73952;BME280;62304;47.662;18.324;2023-08-12T00:14:55;100979.47;;;16.38;84.81
73952;BME280;62304;47.662;18.324;2023-08-12T00:17:58;100976.66;;;16.34;85.55
73952;BME280;62304;47.662;18.324;2023-08-12T00:21:01;100974.97;;;16.23;85.61
73952;BME280;62304;47.662;18.324;2023-08-12T00:24:06;100982.97;;;16.17;85.61
73952;BME280;62304;47.662;18.324;2023-08-12T00:27:09;100973.69;;;15.99;85.81
73952;BME280;62304;47.662;18.324;2023-08-12T00:30:12;100971.66;;;16.00;86.34
73952;BME280;62304;47.662;18.324;2023-08-12T00:33:15;100965.72;;;16.05;87.04
73952;BME280;62304;47.662;18.324;2023-08-12T00:36:19;100970.91;;;16.06;86.62
73952;BME280;62304;47.662;18.324;2023-08-12T00:39:22;100964.94;;;16.08;85.98
73952;BME280;62304;47.662;18.324;2023-08-12T00:42:25;100972.91;;;16.06;86.62
73952;BME280;62304;47.662;18.324;2023-08-12T00:45:29;100964.94;;;16.08;85.62
73952;BME280;62304;47.662;18.324;2023-08-12T00:48:32;100960.97;;;16.19;85.67
73952;BME280;62304;47.662;18.324;2023-08-12T00:51:37;100962.16;;;16.11;86.07
73952;BME280;62304;47.662;18.324;2023-08-12T00:54:41;100955.72;;;16.07;86.05
73952;BME280;62304;47.662;18.324;2023-08-12T00:57:44;100958.47;;;15.97;86.14
73952;BME280;62304;47.662;18.324;2023-08-12T01:00:47;100956.84;;;15.96;86.42
73952;BME280;62304;47.662;18.324;2023-08-12T01:03:52;100955.75;;;16.14;85.67
73952;BME280;62304;47.662;18.324;2023-08-12T01:06:55;100945.78;;;16.24;85.52
73952;BME280;62304;47.662;18.324;2023-08-12T01:09:58;100950.22;;;16.21;85.41
73952;BME280;62304;47.662;18.324;2023-08-12T01:13:19;100949.00;;;16.19;85.00
73952;BME280;62304;47.662;18.324;2023-08-12T01:16:29;100952.72;;;16.47;84.59
73952;BME280;62304;47.662;18.324;2023-08-12T01:19:36;100946.63;;;16.28;85.25
73952;BME280;62304;47.662;18.324;2023-08-12T01:22:40;100954.31;;;16.48;84.95
73952;BME280;62304;47.662;18.324;2023-08-12T01:25:44;100946.31;;;16.43;84.61
73952;BME280;62304;47.662;18.324;2023-08-12T01:28:47;100947.03;;;16.30;85.78
73952;BME280;62304;47.662;18.324;2023-08-12T01:35:20;100952.53;;;16.05;86.32
73952;BME280;62304;47.662;18.324;2023-08-12T01:38:26;100958.59;;;16.21;86.24
73952;BME280;62304;47.662;18.324;2023-08-12T01:41:35;100949.81;;;16.26;85.36
73952;BME280;62304;47.662;18.324;2023-08-12T01:44:38;100949.53;;;16.49;84.91
73952;BME280;62304;47.662;18.324;2023-08-12T01:47:45;100947.56;;;16.56;85.11
73952;BME280;62304;47.662;18.324;2023-08-12T01:50:48;100958.38;;;16.58;84.28
73952;BME280;62304;47.662;18.324;2023-08-12T01:53:51;100953.03;;;16.28;85.13
73952;BME280;62304;47.662;18.324;2023-08-12T01:56:56;100959.37;;;16.18;85.71
73952;BME280;62304;47.662;18.324;2023-08-12T02:00:00;100957.34;;;16.15;86.05
73952;BME280;62304;47.662;18.324;2023-08-12T02:03:17;100950.72;;;16.44;85.88
73952;BME280;62304;47.662;18.324;2023-08-12T02:06:20;100947.53;;;16.49;86.15
73952;BME280;62304;47.662;18.324;2023-08-12T02:09:24;100946.41;;;16.71;84.42
73952;BME280;62304;47.662;18.324;2023-08-12T02:12:27;100942.34;;;16.62;85.33
73952;BME280;62304;47.662;18.324;2023-08-12T02:15:30;100947.62;;;16.77;84.01
73952;BME280;62304;47.662;18.324;2023-08-12T02:18:34;100949.19;;;16.71;85.11
73952;BME280;62304;47.662;18.324;2023-08-12T02:21:38;100953.59;;;16.76;84.46
73952;BME280;62304;47.662;18.324;2023-08-12T02:24:41;100947.62;;;16.91;83.93
73952;BME280;62304;47.662;18.324;2023-08-12T02:27:44;100942.44;;;16.93;82.87
73952;BME280;62304;47.662;18.324;2023-08-12T02:30:47;100940.03;;;16.92;82.94
73952;BME280;62304;47.662;18.324;2023-08-12T02:33:50;100938.37;;;16.66;84.92
73952;BME280;62304;47.662;18.324;2023-08-12T02:36:53;100950.41;;;16.74;85.12
73952;BME280;62304;47.662;18.324;2023-08-12T02:39:56;100943.22;;;16.83;85.12
73952;BME280;62304;47.662;18.324;2023-08-12T02:42:59;100942.78;;;16.78;85.53
73952;BME280;62304;47.662;18.324;2023-08-12T02:46:03;100938.37;;;16.77;85.00
73952;BME280;62304;47.662;18.324;2023-08-12T02:49:06;100942.41;;;16.86;84.54
73952;BME280;62304;47.662;18.324;2023-08-12T02:52:09;100950.81;;;16.83;84.42
73952;BME280;62304;47.662;18.324;2023-08-12T02:55:12;100944.38;;;16.79;84.97
73952;BME280;62304;47.662;18.324;2023-08-12T02:58:16;100948.81;;;16.76;84.13
73952;BME280;62304;47.662;18.324;2023-08-12T03:01:19;100940.41;;;16.76;83.95
73952;BME280;62304;47.662;18.324;2023-08-12T03:04:23;100943.16;;;16.55;85.42
73952;BME280;62304;47.662;18.324;2023-08-12T03:07:28;100950.72;;;16.44;86.01
73952;BME280;62304;47.662;18.324;2023-08-12T03:10:33;100945.13;;;16.48;85.71
73952;BME280;62304;47.662;18.324;2023-08-12T03:13:36;100945.13;;;16.41;86.22
73952;BME280;62304;47.662;18.324;2023-08-12T03:16:40;100945.84;;;16.34;86.24
73952;BME280;62304;47.662;18.324;2023-08-12T03:19:43;100953.03;;;16.25;87.38
73952;BME280;62304;47.662;18.324;2023-08-12T03:22:46;100952.97;;;16.18;86.93
73952;BME280;62304;47.662;18.324;2023-08-12T03:25:49;100958.31;;;16.40;86.29
73952;BME280;62304;47.662;18.324;2023-08-12T03:28:52;100963.13;;;16.43;85.32
73952;BME280;62304;47.662;18.324;2023-08-12T03:31:55;100970.22;;;16.34;85.25
73952;BME280;62304;47.662;18.324;2023-08-12T03:34:59;100970.22;;;16.30;85.29
73952;BME280;62304;47.662;18.324;2023-08-12T03:38:02;100975.44;;;16.32;85.58
73952;BME280;62304;47.662;18.324;2023-08-12T03:41:06;100974.59;;;16.24;85.42
73952;BME280;62304;47.662;18.324;2023-08-12T03:44:10;100981.28;;;16.02;86.88
73952;BME280;62304;47.662;18.324;2023-08-12T03:47:13;100986.53;;;16.11;85.89
73952;BME280;62304;47.662;18.324;2023-08-12T03:50:16;100988.38;;;15.86;86.38
73952;BME280;62304;47.662;18.324;2023-08-12T03:53:19;100976.97;;;15.54;88.23
73952;BME280;62304;47.662;18.324;2023-08-12T03:56:22;100980.06;;;15.42;89.54
73952;BME280;62304;47.662;18.324;2023-08-12T03:59:26;100982.87;;;15.42;89.54
73952;BME280;62304;47.662;18.324;2023-08-12T04:02:29;100982.09;;;15.42;89.70
73952;BME280;62304;47.662;18.324;2023-08-12T04:05:32;100981.25;;;15.41;89.69
73952;BME280;62304;47.662;18.324;2023-08-12T04:08:37;100983.09;;;15.27;90.22
73952;BME280;62304;47.662;18.324;2023-08-12T04:11:40;100983.47;;;15.22;91.10
73952;BME280;62304;47.662;18.324;2023-08-12T04:14:43;100979.37;;;15.09;92.48
73952;BME280;62304;47.662;18.324;2023-08-12T04:17:46;100977.84;;;15.18;91.35
73952;BME280;62304;47.662;18.324;2023-08-12T04:20:49;100983.25;;;15.01;92.65
73952;BME280;62304;47.662;18.324;2023-08-12T04:23:53;100980.91;;;15.03;91.58
73952;BME280;62304;47.662;18.324;2023-08-12T04:26:57;100983.22;;;14.97;91.78
73952;BME280;62304;47.662;18.324;2023-08-12T04:30:03;100987.62;;;14.98;93.00
73952;BME280;62304;47.662;18.324;2023-08-12T04:33:06;100990.47;;;15.05;93.05
73952;BME280;62304;47.662;18.324;2023-08-12T04:36:10;100991.19;;;14.95;93.82
73952;BME280;62304;47.662;18.324;2023-08-12T04:39:13;100992.00;;;14.96;93.55
73952;BME280;62304;47.662;18.324;2023-08-12T04:42:19;100986.06;;;15.01;93.29
73952;BME280;62304;47.662;18.324;2023-08-12T04:45:22;100996.06;;;15.05;92.72
73952;BME280;62304;47.662;18.324;2023-08-12T04:48:25;100984.97;;;15.12;92.48
73952;BME280;62304;47.662;18.324;2023-08-12T04:51:29;100982.63;;;15.18;91.75
73952;BME280;62304;47.662;18.324;2023-08-12T04:54:33;100992.59;;;15.19;92.03
73952;BME280;62304;47.662;18.324;2023-08-12T04:57:36;100984.75;;;15.31;90.94
73952;BME280;62304;47.662;18.324;2023-08-12T05:00:39;100985.59;;;15.35;91.06
73952;BME280;62304;47.662;18.324;2023-08-12T05:03:43;100985.28;;;15.44;91.06
73952;BME280;62304;47.662;18.324;2023-08-12T05:06:46;100984.19;;;15.55;90.96
73952;BME280;62304;47.662;18.324;2023-08-12T05:09:49;100987.09;;;15.76;89.70
73952;BME280;62304;47.662;18.324;2023-08-12T05:12:53;100995.25;;;15.99;88.73
73952;BME280;62304;47.662;18.324;2023-08-12T05:15:56;100993.72;;;16.15;88.94
73952;BME280;62304;47.662;18.324;2023-08-12T05:19:00;100992.72;;;16.44;87.63
73952;BME280;62304;47.662;18.324;2023-08-12T05:22:03;100995.69;;;16.93;86.43
73952;BME280;62304;47.662;18.324;2023-08-12T05:25:07;100995.75;;;17.46;84.15
73952;BME280;62304;47.662;18.324;2023-08-12T05:28:10;100983.28;;;17.82;81.49
73952;BME280;62304;47.662;18.324;2023-08-12T05:31:13;100986.44;;;18.08;81.30
73952;BME280;62304;47.662;18.324;2023-08-12T05:34:16;100988.41;;;18.36;78.83
73952;BME280;62304;47.662;18.324;2023-08-12T05:37:19;100990.69;;;18.62;77.82
73952;BME280;62304;47.662;18.324;2023-08-12T05:40:22;100983.63;;;19.01;77.13
73952;BME280;62304;47.662;18.324;2023-08-12T05:43:25;100987.91;;;19.23;75.92
73952;BME280;62304;47.662;18.324;2023-08-12T05:46:29;100975.06;;;19.22;75.22
73952;BME280;62304;47.662;18.324;2023-08-12T05:49:32;100969.66;;;19.49;74.12
73952;BME280;62304;47.662;18.324;2023-08-12T05:52:35;100980.25;;;19.74;73.11
73952;BME280;62304;47.662;18.324;2023-08-12T05:55:38;100972.91;;;19.84;72.61
73952;BME280;62304;47.662;18.324;2023-08-12T05:58:41;100969.03;;;20.12;71.70
73952;BME280;62304;47.662;18.324;2023-08-12T06:01:44;100965.97;;;20.33;71.00
73952;BME280;62304;47.662;18.324;2023-08-12T06:04:48;100972.97;;;20.51;70.76
73952;BME280;62304;47.662;18.324;2023-08-12T06:07:50;100970.16;;;20.51;71.24
73952;BME280;62304;47.662;18.324;2023-08-12T06:10:53;100968.16;;;20.48;71.55
73952;BME280;62304;47.662;18.324;2023-08-12T06:13:56;100965.50;;;20.37;71.80
73952;BME280;62304;47.662;18.324;2023-08-12T06:16:59;100969.66;;;20.26;72.06
73952;BME280;62304;47.662;18.324;2023-08-12T06:20:02;100971.03;;;20.15;72.29
73952;BME280;62304;47.662;18.324;2023-08-12T06:23:06;100973.84;;;20.11;72.33
73952;BME280;62304;47.662;18.324;2023-08-12T06:26:09;100969.44;;;20.10;72.07
73952;BME280;62304;47.662;18.324;2023-08-12T06:29:12;100962.63;;;20.08;71.23
73952;BME280;62304;47.662;18.324;2023-08-12T06:32:15;100964.22;;;20.12;70.80
73952;BME280;62304;47.662;18.324;2023-08-12T06:35:18;100964.47;;;20.21;70.33
73952;BME280;62304;47.662;18.324;2023-08-12T06:38:21;100965.56;;;20.30;69.87
73952;BME280;62304;47.662;18.324;2023-08-12T06:41:24;100965.44;;;20.41;69.39
73952;BME280;62304;47.662;18.324;2023-08-12T06:44:27;100969.66;;;20.59;67.36
73952;BME280;62304;47.662;18.324;2023-08-12T06:47:30;100963.00;;;20.73;67.74
73952;BME280;62304;47.662;18.324;2023-08-12T06:50:33;100961.47;;;20.98;66.63
73952;BME280;62304;47.662;18.324;2023-08-12T06:53:40;100962.06;;;21.36;64.72
73952;BME280;62304;47.662;18.324;2023-08-12T06:56:43;100954.72;;;21.88;61.81
73952;BME280;62304;47.662;18.324;2023-08-12T06:59:46;100953.72;;;22.37;59.61
73952;BME280;62304;47.662;18.324;2023-08-12T07:02:49;100960.16;;;22.76;57.38
73952;BME280;62304;47.662;18.324;2023-08-12T07:05:53;100960.50;;;22.98;55.67
73952;BME280;62304;47.662;18.324;2023-08-12T07:08:57;100961.06;;;23.25;54.91
73952;BME280;62304;47.662;18.324;2023-08-12T07:12:00;100958.94;;;23.77;53.78
73952;BME280;62304;47.662;18.324;2023-08-12T07:15:04;100954.53;;;23.60;51.86
73952;BME280;62304;47.662;18.324;2023-08-12T07:18:07;100960.72;;;23.71;51.37
73952;BME280;62304;47.662;18.324;2023-08-12T07:21:10;100949.25;;;24.19;49.75
73952;BME280;62304;47.662;18.324;2023-08-12T07:24:14;100951.63;;;24.77;49.51
73952;BME280;62304;47.662;18.324;2023-08-12T07:27:16;100951.63;;;25.02;48.45
73952;BME280;62304;47.662;18.324;2023-08-12T07:30:20;100951.75;;;25.24;48.36
73952;BME280;62304;47.662;18.324;2023-08-12T07:33:23;100954.88;;;25.51;45.41
73952;BME280;62304;47.662;18.324;2023-08-12T07:36:27;100950.50;;;25.84;46.18
73952;BME280;62304;47.662;18.324;2023-08-12T07:39:30;100944.41;;;26.50;46.35
73952;BME280;62304;47.662;18.324;2023-08-12T07:42:34;100943.28;;;26.47;43.08
73952;BME280;62304;47.662;18.324;2023-08-12T07:45:36;100946.66;;;27.07;43.66
73952;BME280;62304;47.662;18.324;2023-08-12T07:48:39;100947.06;;;27.18;46.08
73952;BME280;62304;47.662;18.324;2023-08-12T07:51:42;100944.44;;;27.41;45.91
73952;BME280;62304;47.662;18.324;2023-08-12T07:54:45;100946.53;;;27.59;43.20
73952;BME280;62304;47.662;18.324;2023-08-12T07:57:48;100943.13;;;27.33;42.10
73952;BME280;62304;47.662;18.324;2023-08-12T08:00:54;100938.16;;;27.64;41.77
73952;BME280;62304;47.662;18.324;2023-08-12T08:03:58;100938.31;;;27.70;41.42
73952;BME280;62304;47.662;18.324;2023-08-12T08:07:01;100942.09;;;27.09;41.76
73952;BME280;62304;47.662;18.324;2023-08-12T08:10:05;100951.03;;;27.29;41.35
73952;BME280;62304;47.662;18.324;2023-08-12T08:13:08;100940.75;;;27.32;41.59
73952;BME280;62304;47.662;18.324;2023-08-12T08:16:11;100942.19;;;27.94;41.14
73952;BME280;62304;47.662;18.324;2023-08-12T08:19:14;100939.00;;;28.19;40.50
73952;BME280;62304;47.662;18.324;2023-08-12T08:22:18;100947.25;;;28.44;41.14
73952;BME280;62304;47.662;18.324;2023-08-12T08:25:21;100943.25;;;28.23;39.51
73952;BME280;62304;47.662;18.324;2023-08-12T08:28:24;100937.31;;;28.81;41.98
73952;BME280;62304;47.662;18.324;2023-08-12T08:31:27;100934.97;;;29.21;38.59
73952;BME280;62304;47.662;18.324;2023-08-12T08:34:30;100928.66;;;29.73;40.60
73952;BME280;62304;47.662;18.324;2023-08-12T08:37:33;100938.31;;;29.99;38.51
73952;BME280;62304;47.662;18.324;2023-08-12T08:40:37;100931.06;;;29.89;36.80
73952;BME280;62304;47.662;18.324;2023-08-12T08:43:41;100930.25;;;29.41;36.20
73952;BME280;62304;47.662;18.324;2023-08-12T08:46:46;100927.00;;;28.83;37.60
73952;BME280;62304;47.662;18.324;2023-08-12T08:49:50;100924.25;;;28.98;38.75
73952;BME280;62304;47.662;18.324;2023-08-12T08:52:55;100923.94;;;29.05;36.92
73952;BME280;62304;47.662;18.324;2023-08-12T08:55:59;100920.34;;;29.51;36.28
73952;BME280;62304;47.662;18.324;2023-08-12T08:59:03;100925.34;;;29.89;37.43
73952;BME280;62304;47.662;18.324;2023-08-12T09:02:16;100916.19;;;30.95;35.30
73952;BME280;62304;47.662;18.324;2023-08-12T09:05:20;100919.13;;;31.30;32.71
73952;BME280;62304;47.662;18.324;2023-08-12T09:08:24;100913.62;;;30.97;33.83
73952;BME280;62304;47.662;18.324;2023-08-12T09:11:30;100919.03;;;31.24;32.68
73952;BME280;62304;47.662;18.324;2023-08-12T09:14:34;100908.69;;;30.98;35.54
73952;BME280;62304;47.662;18.324;2023-08-12T09:17:38;100915.13;;;30.93;34.61
73952;BME280;62304;47.662;18.324;2023-08-12T09:20:41;100914.34;;;31.61;32.58
73952;BME280;62304;47.662;18.324;2023-08-12T09:23:46;100909.34;;;31.96;33.22
73952;BME280;62304;47.662;18.324;2023-08-12T09:26:56;100910.53;;;31.01;35.34
73952;BME280;62304;47.662;18.324;2023-08-12T09:30:02;100922.69;;;31.79;32.88
73952;BME280;62304;47.662;18.324;2023-08-12T09:33:07;100915.28;;;31.53;31.77
73952;BME280;62304;47.662;18.324;2023-08-12T09:36:11;100911.97;;;32.40;31.00
73952;BME280;62304;47.662;18.324;2023-08-12T09:39:14;100913.31;;;31.79;31.93
73952;BME280;62304;47.662;18.324;2023-08-12T09:42:18;100907.56;;;32.44;32.12
73952;BME280;62304;47.662;18.324;2023-08-12T09:45:24;100905.03;;;32.52;33.39
73952;BME280;62304;47.662;18.324;2023-08-12T09:48:28;100899.38;;;32.63;31.53
73952;BME280;62304;47.662;18.324;2023-08-12T09:51:36;100892.62;;;32.97;30.89
73952;BME280;62304;47.662;18.324;2023-08-12T09:54:40;100893.38;;;32.92;32.47
73952;BME280;62304;47.662;18.324;2023-08-12T09:57:44;100889.28;;;33.04;31.34
73952;BME280;62304;47.662;18.324;2023-08-12T10:00:51;100884.91;;;33.14;30.27
73952;BME280;62304;47.662;18.324;2023-08-12T10:03:55;100891.25;;;33.23;29.68
73952;BME280;62304;47.662;18.324;2023-08-12T10:06:59;100878.63;;;33.52;29.95
73952;BME280;62304;47.662;18.324;2023-08-12T10:10:03;100876.00;;;33.54;30.31
73952;BME280;62304;47.662;18.324;2023-08-12T10:13:09;100879.81;;;33.82;28.96
73952;BME280;62304;47.662;18.324;2023-08-12T10:16:13;100876.19;;;33.81;29.12
73952;BME280;62304;47.662;18.324;2023-08-12T10:19:17;100867.69;;;33.56;30.67
73952;BME280;62304;47.662;18.324;2023-08-12T10:22:28;100876.38;;;33.72;30.57
73952;BME280;62304;47.662;18.324;2023-08-12T10:25:32;100873.22;;;33.70;28.48
73952;BME280;62304;47.662;18.324;2023-08-12T10:28:39;100872.09;;;33.09;29.03
73952;BME280;62304;47.662;18.324;2023-08-12T10:31:42;100870.78;;;32.48;30.62
73952;BME280;62304;47.662;18.324;2023-08-12T10:34:54;100856.28;;;32.94;29.79
73952;BME280;62304;47.662;18.324;2023-08-12T10:37:58;100856.59;;;31.94;31.31
73952;BME280;62304;47.662;18.324;2023-08-12T10:41:22;100858.25;;;32.51;32.29
73952;BME280;62304;47.662;18.324;2023-08-12T10:44:50;100856.97;;;33.14;31.08
73952;BME280;62304;47.662;18.324;2023-08-12T10:48:20;100856.12;;;33.08;30.24
73952;BME280;62304;47.662;18.324;2023-08-12T10:54:49;100840.91;;;33.02;30.08
73952;BME280;62304;47.662;18.324;2023-08-12T10:57:54;100850.00;;;33.32;30.75
73952;BME280;62304;47.662;18.324;2023-08-12T11:00:59;100843.00;;;34.08;29.62
73952;BME280;62304;47.662;18.324;2023-08-12T11:04:16;100836.66;;;33.82;29.40
73952;BME280;62304;47.662;18.324;2023-08-12T11:07:22;100828.62;;;34.13;29.00
73952;BME280;62304;47.662;18.324;2023-08-12T11:10:27;100823.63;;;33.33;29.70
73952;BME280;62304;47.662;18.324;2023-08-12T11:14:32;100822.38;;;33.45;28.67
73952;BME280;62304;47.662;18.324;2023-08-12T11:17:15;100816.03;;;32.94;30.33
73952;BME280;62304;47.662;18.324;2023-08-12T11:20:18;100818.28;;;32.48;29.45
73952;BME280;62304;47.662;18.324;2023-08-12T11:23:22;100806.13;;;32.33;29.70
73952;BME280;62304;47.662;18.324;2023-08-12T11:26:26;100807.19;;;32.30;30.76
73952;BME280;62304;47.662;18.324;2023-08-12T11:29:28;100809.28;;;32.97;30.77
73952;BME280;62304;47.662;18.324;2023-08-12T11:32:32;100805.41;;;33.53;29.35
73952;BME280;62304;47.662;18.324;2023-08-12T11:35:37;100803.25;;;33.37;29.84
73952;BME280;62304;47.662;18.324;2023-08-12T11:38:41;100800.22;;;33.68;30.16
73952;BME280;62304;47.662;18.324;2023-08-12T11:41:44;100801.12;;;34.07;28.45
73952;BME280;62304;47.662;18.324;2023-08-12T11:44:48;100798.50;;;34.09;28.20
73952;BME280;62304;47.662;18.324;2023-08-12T11:47:51;100798.31;;;34.40;27.93
73952;BME280;62304;47.662;18.324;2023-08-12T11:50:59;100786.75;;;34.73;28.72
73952;BME280;62304;47.662;18.324;2023-08-12T11:54:02;100786.50;;;34.71;27.48
73952;BME280;62304;47.662;18.324;2023-08-12T11:57:08;100781.75;;;33.96;27.94
73952;BME280;62304;47.662;18.324;2023-08-12T12:00:12;100783.91;;;34.29;28.18
73952;BME280;62304;47.662;18.324;2023-08-12T12:03:17;100785.44;;;34.19;27.29
73952;BME280;62304;47.662;18.324;2023-08-12T12:06:31;100776.50;;;33.95;28.35
73952;BME280;62304;47.662;18.324;2023-08-12T12:09:35;100771.78;;;34.03;29.11
73952;BME280;62304;47.662;18.324;2023-08-12T12:12:38;100775.25;;;34.40;26.93
73952;BME280;62304;47.662;18.324;2023-08-12T12:15:42;100767.88;;;34.06;27.38
73952;BME280;62304;47.662;18.324;2023-08-12T12:18:46;100768.38;;;33.88;28.18
73952;BME280;62304;47.662;18.324;2023-08-12T12:21:51;100758.53;;;33.30;29.35
73952;BME280;62304;47.662;18.324;2023-08-12T12:24:57;100760.59;;;33.35;29.74
73952;BME280;62304;47.662;18.324;2023-08-12T12:28:00;100750.81;;;32.74;29.28
73952;BME280;62304;47.662;18.324;2023-08-12T12:31:03;100754.78;;;33.19;28.90
73952;BME280;62304;47.662;18.324;2023-08-12T12:34:07;100744.78;;;33.09;28.85
73952;BME280;62304;47.662;18.324;2023-08-12T12:37:13;100746.22;;;33.30;31.30
73952;BME280;62304;47.662;18.324;2023-08-12T12:40:16;100740.38;;;33.19;30.03
73952;BME280;62304;47.662;18.324;2023-08-12T12:43:19;100748.87;;;33.39;29.12
73952;BME280;62304;47.662;18.324;2023-08-12T12:46:22;100736.66;;;33.02;29.65
73952;BME280;62304;47.662;18.324;2023-08-12T12:49:25;100736.44;;;32.69;28.96
73952;BME280;62304;47.662;18.324;2023-08-12T12:52:28;100738.97;;;32.92;29.85
73952;BME280;62304;47.662;18.324;2023-08-12T12:55:32;100728.59;;;33.11;30.03
73952;BME280;62304;47.662;18.324;2023-08-12T12:58:36;100734.00;;;33.57;28.54
73952;BME280;62304;47.662;18.324;2023-08-12T13:01:41;100735.81;;;32.54;29.76
73952;BME280;62304;47.662;18.324;2023-08-12T13:04:44;100732.44;;;32.55;29.70
73952;BME280;62304;47.662;18.324;2023-08-12T13:07:47;100720.44;;;32.57;30.66
73952;BME280;62304;47.662;18.324;2023-08-12T13:10:50;100720.34;;;32.82;30.35
73952;BME280;62304;47.662;18.324;2023-08-12T13:13:54;100716.44;;;33.44;30.01
73952;BME280;62304;47.662;18.324;2023-08-12T13:16:57;100712.38;;;33.89;28.80
73952;BME280;62304;47.662;18.324;2023-08-12T13:20:00;100706.34;;;33.01;28.32
73952;BME280;62304;47.662;18.324;2023-08-12T13:23:03;100710.94;;;32.14;31.08
73952;BME280;62304;47.662;18.324;2023-08-12T13:26:06;100703.62;;;32.44;29.66
73952;BME280;62304;47.662;18.324;2023-08-12T13:29:09;100708.81;;;32.35;29.96
73952;BME280;62304;47.662;18.324;2023-08-12T13:32:12;100705.63;;;32.33;30.45
73952;BME280;62304;47.662;18.324;2023-08-12T13:35:17;100702.34;;;32.45;30.45
73952;BME280;62304;47.662;18.324;2023-08-12T13:38:20;100700.22;;;32.40;29.97
73952;BME280;62304;47.662;18.324;2023-08-12T13:41:23;100703.41;;;31.86;31.11
73952;BME280;62304;47.662;18.324;2023-08-12T13:44:26;100687.91;;;32.34;30.61
73952;BME280;62304;47.662;18.324;2023-08-12T13:47:29;100694.47;;;32.40;30.02
73952;BME280;62304;47.662;18.324;2023-08-12T13:50:32;100693.94;;;32.05;30.04
73952;BME280;62304;47.662;18.324;2023-08-12T13:53:36;100700.84;;;31.42;30.96
73952;BME280;62304;47.662;18.324;2023-08-12T13:56:40;100688.56;;;31.87;30.56
73952;BME280;62304;47.662;18.324;2023-08-12T13:59:43;100683.03;;;30.93;31.43
73952;BME280;62304;47.662;18.324;2023-08-12T14:02:46;100673.47;;;31.41;31.49
73952;BME280;62304;47.662;18.324;2023-08-12T14:05:51;100678.25;;;31.50;31.50
73952;BME280;62304;47.662;18.324;2023-08-12T14:08:54;100676.78;;;31.60;31.51
73952;BME280;62304;47.662;18.324;2023-08-12T14:11:58;100670.59;;;31.67;31.85
73952;BME280;62304;47.662;18.324;2023-08-12T14:15:01;100668.28;;;31.45;32.44
73952;BME280;62304;47.662;18.324;2023-08-12T14:18:05;100665.53;;;31.56;32.84
73952;BME280;62304;47.662;18.324;2023-08-12T14:21:07;100665.47;;;32.02;32.39
73952;BME280;62304;47.662;18.324;2023-08-12T14:24:11;100659.88;;;32.24;32.54
73952;BME280;62304;47.662;18.324;2023-08-12T14:27:16;100655.03;;;32.04;33.59
73952;BME280;62304;47.662;18.324;2023-08-12T14:30:25;100652.34;;;32.26;33.27
73952;BME280;62304;47.662;18.324;2023-08-12T14:33:28;100654.06;;;32.13;32.98
73952;BME280;62304;47.662;18.324;2023-08-12T14:36:32;100645.47;;;31.82;33.29
73952;BME280;62304;47.662;18.324;2023-08-12T14:39:35;100652.53;;;31.61;34.00
73952;BME280;62304;47.662;18.324;2023-08-12T14:42:38;100652.69;;;30.81;32.74
73952;BME280;62304;47.662;18.324;2023-08-12T14:45:41;100648.88;;;30.35;33.61
73952;BME280;62304;47.662;18.324;2023-08-12T14:48:44;100654.09;;;29.87;34.74
73952;BME280;62304;47.662;18.324;2023-08-12T14:51:47;100653.09;;;29.90;34.95
73952;BME280;62304;47.662;18.324;2023-08-12T14:54:50;100638.84;;;29.61;34.98
73952;BME280;62304;47.662;18.324;2023-08-12T14:57:53;100639.97;;;29.26;35.49
73952;BME280;62304;47.662;18.324;2023-08-12T15:00:56;100641.31;;;29.01;35.78
73952;BME280;62304;47.662;18.324;2023-08-12T15:03:59;100640.75;;;28.65;36.35
73952;BME280;62304;47.662;18.324;2023-08-12T15:07:02;100634.75;;;28.63;36.66
73952;BME280;62304;47.662;18.324;2023-08-12T15:10:06;100637.66;;;28.54;37.75
73952;BME280;62304;47.662;18.324;2023-08-12T15:13:09;100629.09;;;28.30;37.91
73952;BME280;62304;47.662;18.324;2023-08-12T15:16:12;100620.81;;;28.32;39.33
73952;BME280;62304;47.662;18.324;2023-08-12T15:19:16;100615.69;;;28.45;38.30
73952;BME280;62304;47.662;18.324;2023-08-12T15:22:18;100619.72;;;28.39;38.54
73952;BME280;62304;47.662;18.324;2023-08-12T15:25:22;100614.81;;;28.30;38.53
73952;BME280;62304;47.662;18.324;2023-08-12T15:28:25;100612.50;;;28.20;38.61
73952;BME280;62304;47.662;18.324;2023-08-12T15:31:28;100602.25;;;28.13;39.08
73952;BME280;62304;47.662;18.324;2023-08-12T15:34:32;100601.88;;;28.20;38.90
73952;BME280;62304;47.662;18.324;2023-08-12T15:37:35;100599.16;;;27.93;39.52
73952;BME280;62304;47.662;18.324;2023-08-12T15:40:38;100598.44;;;27.75;39.33
73952;BME280;62304;47.662;18.324;2023-08-12T15:43:43;100598.28;;;27.78;39.53
73952;BME280;62304;47.662;18.324;2023-08-12T15:46:46;100587.69;;;27.70;39.99
73952;BME280;62304;47.662;18.324;2023-08-12T15:49:49;100583.25;;;27.69;39.58
73952;BME280;62304;47.662;18.324;2023-08-12T15:52:52;100586.75;;;27.64;39.78
73952;BME280;62304;47.662;18.324;2023-08-12T15:55:55;100586.94;;;27.60;39.94
73952;BME280;62304;47.662;18.324;2023-08-12T15:58:58;100582.69;;;27.47;40.05